Terminal Aerodrome Forecast
Issued by NWS Cleveland, OH

Home | Current Version | Previous Version | Text Only | Print | Product List | Glossary On
Versions: 1 2 3 4 5 6 7 8 9 10 11 12 13 14 15 16 17 18 19 20 21 22 23
000
FTUS41 KCLE 231100
TAFTOL
TAF
KTOL 231139Z 2312/2412 VRB03KT 3SM BR BKN002
      TEMPO 2312/2313 1 1/2SM BR
     FM231400 29005KT P6SM SCT250
     FM232300 22003KT P6SM BKN250=

USA.gov is the U.S. government's official web portal to all federal, state and local government web resources and services.